Time;durP1;ratioP1;P1;durP2;ratioP2;P2;SDS_P1;SDS_P2;PMS_P1;PMS_P2;Temp;Humidity;BMP_temperature;BMP_pressure;BME280_temperature;BME280_humidity;BME280_pressure;Samples;Min_cycle;Max_cycle;Signal;HPM_P1;HPM_P2
2023/06/03 00:03:22;;;;;;;11.67;4.97;;;;;;;;;;10549087;28;20127;-84
2023/06/03 00:08:30;;;;;;;11.15;5.43;;;;;;;;;;10556862;28;20040;-83
2023/06/03 00:13:51;;;;;;;10.00;5.20;;;;;;;;;;10552245;28;20321;-84
2023/06/03 00:19:04;;;;;;;9.35;4.38;;;;;;;;;;10549199;28;20051;-83
2023/06/03 00:24:12;;;;;;;10.98;5.05;;;;;;;;;;10563217;28;20036;-83
2023/06/03 00:29:21;;;;;;;10.88;4.75;;;;;;;;;;10546576;28;20052;-83
2023/06/03 00:34:34;;;;;;;15.02;5.13;;;;;;;;;;10555355;28;20044;-84
2023/06/03 00:39:48;;;;;;;12.30;5.15;;;;;;;;;;10557413;28;20070;-83
2023/06/03 00:45:05;;;;;;;11.45;4.78;;;;;;;;;;10552305;28;20114;-83
2023/06/03 00:50:19;;;;;;;12.70;5.10;;;;;;;;;;10544768;28;20040;-83
2023/06/03 00:55:27;;;;;;;10.75;4.57;;;;;;;;;;10548035;28;20062;-83
2023/06/03 01:00:44;;;;;;;16.83;5.20;;;;;;;;;;10583102;27;20888;-84
2023/06/03 01:06:01;;;;;;;11.30;4.95;;;;;;;;;;10552865;28;20082;-84
2023/06/03 01:11:15;;;;;;;11.30;4.85;;;;;;;;;;10551149;28;20053;-85
2023/06/03 01:16:34;;;;;;;12.90;5.07;;;;;;;;;;10547038;28;20461;-85
2023/06/03 01:21:42;;;;;;;12.02;5.68;;;;;;;;;;10543338;28;20180;-84
2023/06/03 01:26:52;;;;;;;11.95;5.30;;;;;;;;;;10547620;28;20168;-85
2023/06/03 01:32:11;;;;;;;11.27;5.47;;;;;;;;;;10545422;28;20047;-84
2023/06/03 01:37:32;;;;;;;13.85;4.38;;;;;;;;;;10545347;28;20284;-83
2023/06/03 01:42:50;;;;;;;12.68;4.57;;;;;;;;;;10577642;27;20044;-83
2023/06/03 01:48:01;;;;;;;10.18;4.22;;;;;;;;;;10548183;28;20105;-83
2023/06/03 01:53:13;;;;;;;9.10;4.20;;;;;;;;;;10541926;28;20097;-83
2023/06/03 01:58:35;;;;;;;12.25;4.68;;;;;;;;;;10547002;28;20103;-83
2023/06/03 02:03:41;;;;;;;12.57;4.82;;;;;;;;;;10548726;28;20031;-83
2023/06/03 02:08:50;;;;;;;11.65;4.22;;;;;;;;;;10545085;28;20118;-85
2023/06/03 02:13:56;;;;;;;10.88;4.63;;;;;;;;;;10546735;28;20077;-85
2023/06/03 02:19:20;;;;;;;13.27;4.43;;;;;;;;;;10547221;28;20047;-84
2023/06/03 02:24:28;;;;;;;11.25;3.90;;;;;;;;;;10544320;28;20488;-85
2023/06/03 02:29:37;;;;;;;11.50;4.07;;;;;;;;;;10545395;28;20040;-85
2023/06/03 02:35:04;;;;;;;9.07;4.05;;;;;;;;;;10544455;28;20273;-84
2023/06/03 02:40:12;;;;;;;7.28;3.58;;;;;;;;;;10572929;27;20119;-84
2023/06/03 02:45:18;;;;;;;8.10;3.92;;;;;;;;;;10547356;28;20124;-83
2023/06/03 02:51:00;;;;;;;8.43;3.95;;;;;;;;;;10543159;28;20084;-84
2023/06/03 02:56:07;;;;;;;12.38;3.63;;;;;;;;;;10547957;28;20416;-83
2023/06/03 03:01:15;;;;;;;9.13;4.05;;;;;;;;;;10542564;28;20050;-87
2023/06/03 03:06:31;;;;;;;15.23;4.75;;;;;;;;;;10546702;28;20036;-85
2023/06/03 03:11:52;;;;;;;12.13;4.50;;;;;;;;;;10553661;28;20083;-85
2023/06/03 03:17:00;;;;;;;9.85;4.22;;;;;;;;;;10548952;28;20101;-83
2023/06/03 03:22:19;;;;;;;10.55;4.20;;;;;;;;;;10545817;28;20107;-83
2023/06/03 03:27:23;;;;;;;10.25;3.65;;;;;;;;;;10543229;28;20051;-85
2023/06/03 03:32:34;;;;;;;10.55;3.72;;;;;;;;;;10549807;28;20063;-85
2023/06/03 03:37:52;;;;;;;7.88;3.55;;;;;;;;;;10544163;28;20519;-84
2023/06/03 03:43:06;;;;;;;9.30;4.20;;;;;;;;;;10546330;28;20047;-85
2023/06/03 03:48:14;;;;;;;6.95;3.53;;;;;;;;;;10555280;28;20067;-86
2023/06/03 03:59:11;;;;;;;11.70;3.90;;;;;;;;;;10551305;28;20048;-84
2023/06/03 04:04:30;;;;;;;9.57;3.83;;;;;;;;;;10561904;27;20036;-83
2023/06/03 04:09:57;;;;;;;10.07;4.40;;;;;;;;;;10545858;28;20044;-83
2023/06/03 04:15:16;;;;;;;9.98;3.80;;;;;;;;;;10547023;28;20076;-82
2023/06/03 04:20:34;;;;;;;7.55;4.18;;;;;;;;;;10551608;28;20063;-81
2023/06/03 04:25:58;;;;;;;7.80;3.60;;;;;;;;;;10548990;28;20032;-81
2023/06/03 04:31:09;;;;;;;;;;;;;;;;;;10545523;28;20103;-83
2023/06/03 04:36:36;;;;;;;10.25;3.40;;;;;;;;;;10551531;28;19919;-85
2023/06/03 04:41:47;;;;;;;;;;;;;;;;;;10556163;28;20187;-85
2023/06/03 04:47:17;;;;;;;7.20;3.50;;;;;;;;;;10555512;28;19923;-84
2023/06/03 04:52:44;;;;;;;6.80;3.45;;;;;;;;;;10530918;28;20044;-84
2023/06/03 04:58:00;;;;;;;7.93;3.40;;;;;;;;;;10559189;27;20346;-84
2023/06/03 05:03:28;;;;;;;8.13;3.30;;;;;;;;;;10599244;27;20445;-84
2023/06/03 05:08:39;;;;;;;8.75;3.92;;;;;;;;;;10576361;28;20126;-84
2023/06/03 05:13:56;;;;;;;6.10;3.20;;;;;;;;;;10582320;27;20038;-85
2023/06/03 05:19:48;;;;;;;10.05;3.40;;;;;;;;;;10592104;27;20086;-85
2023/06/03 05:24:56;;;;;;;9.77;3.77;;;;;;;;;;10597005;27;20291;-85
2023/06/03 05:30:19;;;;;;;10.20;3.72;;;;;;;;;;10593480;27;20051;-85
2023/06/03 05:35:27;;;;;;;7.82;3.78;;;;;;;;;;10591769;27;20035;-84
2023/06/03 05:40:33;;;;;;;9.52;4.15;;;;;;;;;;10598835;27;20047;-85
2023/06/03 05:45:38;;;;;;;10.27;4.43;;;;;;;;;;10580947;27;20130;-84
2023/06/03 05:51:12;;;;;;;11.13;4.05;;;;;;;;;;10582472;27;20462;-84
2023/06/03 05:56:21;;;;;;;11.55;3.90;;;;;;;;;;10594543;27;20042;-82
2023/06/03 06:01:30;;;;;;;9.25;3.63;;;;;;;;;;10593550;27;20103;-85
2023/06/03 06:06:37;;;;;;;5.45;3.33;;;;;;;;;;10594529;27;20097;-86
2023/06/03 06:11:58;;;;;;;9.60;3.63;;;;;;;;;;10590724;27;20065;-85
2023/06/03 06:17:05;;;;;;;10.10;3.63;;;;;;;;;;10592658;27;20035;-85
2023/06/03 06:22:32;;;;;;;12.13;4.07;;;;;;;;;;10579245;27;20133;-78
2023/06/03 06:27:39;;;;;;;11.50;4.10;;;;;;;;;;10608499;27;20134;-78
2023/06/03 06:38:12;;;;;;;5.90;2.67;;;;;;;;;;10589954;28;20040;-79
2023/06/03 06:43:25;;;;;;;10.20;3.90;;;;;;;;;;10587442;28;20062;-79
2023/06/03 06:48:34;;;;;;;9.15;4.00;;;;;;;;;;10573132;28;20112;-77
2023/06/03 06:53:47;;;;;;;6.82;2.88;;;;;;;;;;10587902;28;20054;-78
2023/06/03 06:59:00;;;;;;;8.65;3.85;;;;;;;;;;10588995;28;20054;-78
2023/06/03 07:04:16;;;;;;;9.15;4.15;;;;;;;;;;10593552;28;20056;-78
2023/06/03 07:09:43;;;;;;;8.23;3.65;;;;;;;;;;10589418;28;20067;-78
2023/06/03 07:14:54;;;;;;;7.57;4.05;;;;;;;;;;10560741;28;20043;-77
2023/06/03 07:20:01;;;;;;;10.00;3.72;;;;;;;;;;10569030;28;20044;-79
2023/06/03 07:25:16;;;;;;;7.63;3.80;;;;;;;;;;10599138;27;20056;-77
2023/06/03 07:30:26;;;;;;;8.65;4.55;;;;;;;;;;10579491;27;20077;-78
2023/06/03 07:35:47;;;;;;;8.63;3.75;;;;;;;;;;10578075;27;20039;-78
2023/06/03 07:40:54;;;;;;;8.60;3.90;;;;;;;;;;10603001;27;20051;-78
2023/06/03 07:46:11;;;;;;;9.38;3.80;;;;;;;;;;10600845;27;20132;-78
2023/06/03 07:51:17;;;;;;;10.77;4.13;;;;;;;;;;10573804;28;20039;-78
2023/06/03 08:02:02;;;;;;;9.52;4.50;;;;;;;;;;10593457;27;20040;-79
2023/06/03 08:07:06;;;;;;;6.88;4.30;;;;;;;;;;10574333;27;20071;-77
2023/06/03 08:12:16;;;;;;;8.45;4.85;;;;;;;;;;10605522;27;20077;-78
2023/06/03 08:22:53;;;;;;;7.28;4.30;;;;;;;;;;10576968;27;20854;-78
2023/06/03 08:27:56;;;;;;;6.63;4.50;;;;;;;;;;10540876;28;20139;-79
2023/06/03 08:32:59;;;;;;;7.75;4.53;;;;;;;;;;10542114;28;20105;-78
2023/06/03 08:38:03;;;;;;;8.05;4.38;;;;;;;;;;10521558;28;20055;-79
2023/06/03 08:43:07;;;;;;;8.93;4.60;;;;;;;;;;10538065;28;20052;-79
2023/06/03 08:48:16;;;;;;;6.40;4.47;;;;;;;;;;10539931;28;20111;-79
2023/06/03 08:53:20;;;;;;;7.40;4.53;;;;;;;;;;10539859;28;20043;-80
2023/06/03 08:58:25;;;;;;;10.95;5.00;;;;;;;;;;10537752;28;20047;-79
2023/06/03 09:03:28;;;;;;;7.60;4.65;;;;;;;;;;10538154;28;20051;-79
2023/06/03 09:08:32;;;;;;;6.10;4.57;;;;;;;;;;10536696;28;22040;-79
2023/06/03 09:13:35;;;;;;;9.55;4.13;;;;;;;;;;10540939;28;20473;-79
2023/06/03 09:18:39;;;;;;;8.20;4.57;;;;;;;;;;10538085;28;20028;-79
2023/06/03 09:23:43;;;;;;;6.38;4.40;;;;;;;;;;10539732;28;20044;-79
2023/06/03 09:28:46;;;;;;;8.15;4.50;;;;;;;;;;10539921;28;20032;-79
2023/06/03 09:33:49;;;;;;;8.80;4.43;;;;;;;;;;10515137;28;20078;-80
2023/06/03 09:38:54;;;;;;;8.80;4.63;;;;;;;;;;10511171;28;20056;-80
2023/06/03 09:43:57;;;;;;;7.57;4.45;;;;;;;;;;10511082;28;20050;-79
2023/06/03 09:49:10;;;;;;;9.23;4.43;;;;;;;;;;10509201;28;20073;-78
2023/06/03 09:54:15;;;;;;;5.25;4.13;;;;;;;;;;10509997;28;20104;-79
2023/06/03 09:59:18;;;;;;;7.95;4.35;;;;;;;;;;10511534;28;20048;-81
2023/06/03 10:04:22;;;;;;;7.75;4.55;;;;;;;;;;10509098;28;20044;-79
2023/06/03 10:09:26;;;;;;;5.90;4.43;;;;;;;;;;10505600;28;20036;-79
2023/06/03 10:14:29;;;;;;;6.80;4.60;;;;;;;;;;10512004;28;20068;-79
2023/06/03 10:19:33;;;;;;;8.10;4.65;;;;;;;;;;10503821;28;20055;-79
2023/06/03 10:24:38;;;;;;;7.93;4.72;;;;;;;;;;10505632;28;20123;-79
2023/06/03 10:29:41;;;;;;;5.75;4.38;;;;;;;;;;10508438;28;20076;-79
2023/06/03 10:34:44;;;;;;;8.77;4.40;;;;;;;;;;10505636;28;20040;-78
2023/06/03 10:39:49;;;;;;;8.32;4.68;;;;;;;;;;10487129;28;20040;-80
2023/06/03 10:44:52;;;;;;;5.47;3.97;;;;;;;;;;10506104;28;20071;-81
2023/06/03 10:49:57;;;;;;;6.57;4.30;;;;;;;;;;10508618;28;20044;-79
2023/06/03 10:55:07;;;;;;;8.32;3.90;;;;;;;;;;10503252;28;20068;-79
2023/06/03 11:00:10;;;;;;;8.35;4.38;;;;;;;;;;10500625;28;20036;-79
2023/06/03 11:05:23;;;;;;;7.05;4.57;;;;;;;;;;10503129;28;20040;-79
2023/06/03 11:10:40;;;;;;;20.90;10.63;;;;;;;;;;10486990;28;20040;-78
2023/06/03 11:15:59;;;;;;;7.05;4.50;;;;;;;;;;10503650;28;20044;-78
2023/06/03 11:21:02;;;;;;;9.63;4.67;;;;;;;;;;10501610;28;20476;-77
2023/06/03 11:26:20;;;;;;;6.95;4.15;;;;;;;;;;10499000;28;20036;-77
2023/06/03 11:31:27;;;;;;;9.23;4.55;;;;;;;;;;10508585;28;20037;-77
2023/06/03 11:36:54;;;;;;;6.45;4.28;;;;;;;;;;10502399;28;20198;-77
2023/06/03 11:42:15;;;;;;;7.65;5.25;;;;;;;;;;10484765;28;20109;-77
2023/06/03 11:47:18;;;;;;;6.93;4.28;;;;;;;;;;10505669;28;20131;-77
2023/06/03 11:52:21;;;;;;;9.65;4.72;;;;;;;;;;10501992;28;20046;-76
2023/06/03 11:57:28;;;;;;;9.50;4.93;;;;;;;;;;10503647;28;20072;-78
2023/06/03 12:02:38;;;;;;;9.10;4.00;;;;;;;;;;10505970;28;20052;-78
2023/06/03 12:07:43;;;;;;;;;;;;;;;;;;10509844;28;20048;-78
2023/06/03 12:12:52;;;;;;;8.05;4.18;;;;;;;;;;10505265;28;19988;-78
2023/06/03 12:18:03;;;;;;;7.70;3.78;;;;;;;;;;10506479;28;20058;-77
2023/06/03 12:23:07;;;;;;;7.20;4.18;;;;;;;;;;10506946;28;20112;-77
2023/06/03 12:28:22;;;;;;;9.00;3.85;;;;;;;;;;10507604;28;20048;-78
2023/06/03 12:33:40;;;;;;;6.22;3.80;;;;;;;;;;10505610;28;20044;-78
2023/06/03 12:38:53;;;;;;;8.05;4.28;;;;;;;;;;10508630;28;20044;-78
2023/06/03 12:44:03;;;;;;;7.38;4.03;;;;;;;;;;10504938;28;20032;-76
2023/06/03 12:49:23;;;;;;;9.65;4.45;;;;;;;;;;10504882;28;20468;-77
2023/06/03 12:54:27;;;;;;;5.78;3.72;;;;;;;;;;10504139;28;20032;-82
2023/06/03 12:59:30;;;;;;;7.10;3.55;;;;;;;;;;10499771;28;20058;-78
2023/06/03 13:04:32;;;;;;;5.78;3.58;;;;;;;;;;10505208;28;20048;-82
2023/06/03 13:09:37;;;;;;;6.18;3.25;;;;;;;;;;10515749;28;20124;-81
2023/06/03 13:14:43;;;;;;;10.57;3.75;;;;;;;;;;10513456;28;20037;-83
2023/06/03 13:19:47;;;;;;;7.13;3.78;;;;;;;;;;10517977;28;20043;-83
2023/06/03 13:24:52;;;;;;;6.95;3.25;;;;;;;;;;10514965;28;20128;-81
2023/06/03 13:29:54;;;;;;;6.63;3.70;;;;;;;;;;10514621;28;20043;-80
2023/06/03 13:34:59;;;;;;;5.10;2.95;;;;;;;;;;10511988;28;20050;-84
2023/06/03 13:40:04;;;;;;;8.40;3.50;;;;;;;;;;10512589;28;20037;-84
2023/06/03 13:45:07;;;;;;;8.10;3.50;;;;;;;;;;10509288;28;21312;-85
2023/06/03 13:50:10;;;;;;;5.15;3.10;;;;;;;;;;10511816;28;20044;-84
2023/06/03 13:55:15;;;;;;;6.55;3.72;;;;;;;;;;10517461;28;20040;-83
2023/06/03 14:00:18;;;;;;;7.88;3.92;;;;;;;;;;10504985;28;20075;-77
2023/06/03 14:05:21;;;;;;;7.68;3.45;;;;;;;;;;10500750;28;20049;-77
2023/06/03 14:10:26;;;;;;;6.70;3.40;;;;;;;;;;10511035;28;20041;-75
2023/06/03 14:15:29;;;;;;;6.03;3.50;;;;;;;;;;10512625;28;20086;-74
2023/06/03 14:20:32;;;;;;;8.50;3.40;;;;;;;;;;10512554;28;20112;-75
2023/06/03 14:25:39;;;;;;;8.07;3.22;;;;;;;;;;10511444;28;20067;-74
2023/06/03 14:30:42;;;;;;;7.50;3.55;;;;;;;;;;10510545;28;20048;-73
2023/06/03 14:35:59;;;;;;;6.72;3.50;;;;;;;;;;10506171;28;20040;-75
2023/06/03 14:41:04;;;;;;;6.80;3.25;;;;;;;;;;10511761;28;20044;-76
2023/06/03 14:46:07;;;;;;;9.60;3.38;;;;;;;;;;10503318;28;20123;-75
2023/06/03 14:51:09;;;;;;;6.78;4.00;;;;;;;;;;10511181;28;20048;-75
2023/06/03 14:56:14;;;;;;;5.10;3.03;;;;;;;;;;10511417;28;20052;-75
2023/06/03 15:01:17;;;;;;;7.38;3.60;;;;;;;;;;10509621;28;20123;-74
2023/06/03 15:06:20;;;;;;;10.65;3.90;;;;;;;;;;10508651;28;20089;-74
2023/06/03 15:11:25;;;;;;;3.17;2.13;;;;;;;;;;10511263;28;20455;-75
2023/06/03 15:16:28;;;;;;;7.30;3.40;;;;;;;;;;10508917;28;20141;-74
2023/06/03 15:21:31;;;;;;;;;;;;;;;;;;10511075;28;20037;-74
2023/06/03 15:26:35;;;;;;;6.13;3.45;;;;;;;;;;10511020;28;19924;-75
2023/06/03 15:31:38;;;;;;;6.10;3.30;;;;;;;;;;10505576;28;20468;-74
2023/06/03 15:36:41;;;;;;;7.53;3.65;;;;;;;;;;10509846;28;20437;-76
2023/06/03 15:41:46;;;;;;;8.82;3.80;;;;;;;;;;10512487;28;20127;-75
2023/06/03 15:46:49;;;;;;;7.68;3.78;;;;;;;;;;10511739;28;20036;-73
2023/06/03 15:51:52;;;;;;;6.00;3.85;;;;;;;;;;10504714;28;20055;-76
2023/06/03 15:56:56;;;;;;;7.38;3.92;;;;;;;;;;10506976;28;20071;-76
2023/06/03 16:02:00;;;;;;;6.15;3.38;;;;;;;;;;10504172;28;20056;-75
2023/06/03 16:07:03;;;;;;;10.30;4.55;;;;;;;;;;10509849;28;20052;-75
2023/06/03 16:12:08;;;;;;;6.78;3.55;;;;;;;;;;10504859;28;20056;-75
2023/06/03 16:17:11;;;;;;;9.43;4.25;;;;;;;;;;10503286;28;20047;-76
2023/06/03 16:22:14;;;;;;;7.40;3.70;;;;;;;;;;10503080;28;20101;-75
2023/06/03 16:27:18;;;;;;;5.90;3.35;;;;;;;;;;10504401;28;20104;-73
2023/06/03 16:32:21;;;;;;;7.18;3.83;;;;;;;;;;10505096;28;20040;-75
2023/06/03 16:37:24;;;;;;;;;;;;;;;;;;10506705;28;20056;-76
2023/06/03 16:42:28;;;;;;;6.53;3.60;;;;;;;;;;10508980;28;19952;-76
2023/06/03 16:47:35;;;;;;;5.47;3.20;;;;;;;;;;10519051;28;20358;-75
2023/06/03 16:52:38;;;;;;;8.77;4.00;;;;;;;;;;10513902;28;20416;-75
2023/06/03 16:57:42;;;;;;;9.02;3.53;;;;;;;;;;10514090;28;20064;-75
2023/06/03 17:02:45;;;;;;;7.05;3.33;;;;;;;;;;10510220;28;20040;-75
2023/06/03 17:07:48;;;;;;;;;;;;;;;;;;10515998;28;20442;-76
2023/06/03 17:12:53;;;;;;;7.75;3.40;;;;;;;;;;10520967;28;19955;-76
2023/06/03 17:17:56;;;;;;;7.03;3.63;;;;;;;;;;10512866;28;20687;-76
2023/06/03 17:22:58;;;;;;;9.07;3.75;;;;;;;;;;10509095;28;20033;-76
2023/06/03 17:28:03;;;;;;;5.93;3.25;;;;;;;;;;10514911;28;20044;-76
2023/06/03 17:33:05;;;;;;;7.97;3.65;;;;;;;;;;10511040;28;20029;-75
2023/06/03 17:38:08;;;;;;;5.97;3.40;;;;;;;;;;10516692;28;20049;-76
2023/06/03 17:43:11;;;;;;;;;;;;;;;;;;10511420;28;20043;-74
2023/06/03 17:48:16;;;;;;;7.77;3.20;;;;;;;;;;10509556;28;19925;-75
2023/06/03 17:53:18;;;;;;;8.80;3.60;;;;;;;;;;10515462;28;20032;-75
2023/06/03 17:58:21;;;;;;;8.15;3.55;;;;;;;;;;10507688;28;20453;-76
2023/06/03 18:03:25;;;;;;;6.88;3.72;;;;;;;;;;10507539;28;20037;-75
2023/06/03 18:08:27;;;;;;;7.38;3.22;;;;;;;;;;10511583;28;20064;-75
2023/06/03 18:13:30;;;;;;;9.55;3.53;;;;;;;;;;10507980;28;20148;-75
2023/06/03 18:18:34;;;;;;;7.20;3.47;;;;;;;;;;10511605;28;20079;-75
2023/06/03 18:23:37;;;;;;;7.68;3.38;;;;;;;;;;10510370;28;20032;-76
2023/06/03 18:28:40;;;;;;;8.43;3.53;;;;;;;;;;10511932;28;20182;-75
2023/06/03 18:33:44;;;;;;;5.45;3.15;;;;;;;;;;10509319;28;20037;-75
2023/06/03 18:38:46;;;;;;;7.60;3.08;;;;;;;;;;10505471;28;20135;-75
2023/06/03 18:43:49;;;;;;;5.93;3.00;;;;;;;;;;10510335;28;20041;-76
2023/06/03 18:48:53;;;;;;;7.90;3.67;;;;;;;;;;10508391;28;20064;-76
2023/06/03 18:53:56;;;;;;;7.25;3.15;;;;;;;;;;10507414;28;20115;-75
2023/06/03 18:58:59;;;;;;;10.03;3.50;;;;;;;;;;10509455;28;20048;-77
2023/06/03 19:04:18;;;;;;;7.80;3.72;;;;;;;;;;10512177;28;20094;-75
2023/06/03 19:09:21;;;;;;;5.93;3.30;;;;;;;;;;10508284;28;20052;-75
2023/06/03 19:14:23;;;;;;;7.47;3.67;;;;;;;;;;10505643;28;20037;-76
2023/06/03 19:19:27;;;;;;;11.17;3.30;;;;;;;;;;10508405;28;20040;-75
2023/06/03 19:24:30;;;;;;;7.82;3.47;;;;;;;;;;10504948;28;20056;-74
2023/06/03 19:29:33;;;;;;;9.80;3.87;;;;;;;;;;10509622;28;20520;-75
2023/06/03 19:34:37;;;;;;;8.47;3.70;;;;;;;;;;10513778;28;20064;-76
2023/06/03 19:39:39;;;;;;;8.60;3.83;;;;;;;;;;10505887;28;20108;-75
2023/06/03 19:44:42;;;;;;;8.40;3.27;;;;;;;;;;10511427;28;20091;-75
2023/06/03 19:49:46;;;;;;;9.03;3.90;;;;;;;;;;10506670;28;20045;-75
2023/06/03 19:54:49;;;;;;;11.48;3.90;;;;;;;;;;10510911;28;20108;-73
2023/06/03 19:59:51;;;;;;;9.50;3.70;;;;;;;;;;10508773;28;20064;-77
2023/06/03 20:04:55;;;;;;;7.27;3.73;;;;;;;;;;10506940;28;20036;-74
2023/06/03 20:09:58;;;;;;;7.70;3.83;;;;;;;;;;10507880;28;20033;-77
2023/06/03 20:15:01;;;;;;;12.33;3.90;;;;;;;;;;10506842;28;20036;-75
2023/06/03 20:20:06;;;;;;;7.47;4.15;;;;;;;;;;10514509;28;20482;-77
2023/06/03 20:25:08;;;;;;;7.63;4.28;;;;;;;;;;10507730;28;20135;-77
2023/06/03 20:30:11;;;;;;;12.55;4.20;;;;;;;;;;10508143;28;20075;-75
2023/06/03 20:35:15;;;;;;;10.53;4.00;;;;;;;;;;10498233;28;20072;-76
2023/06/03 20:40:19;;;;;;;9.02;3.90;;;;;;;;;;10506994;28;20040;-76
2023/06/03 20:45:21;;;;;;;;;;;;;;;;;;10508393;28;20040;-75
2023/06/03 20:50:25;;;;;;;10.90;5.18;;;;;;;;;;10509799;28;19975;-77
2023/06/03 20:55:28;;;;;;;10.13;4.38;;;;;;;;;;10506201;28;20129;-76
2023/06/03 21:00:30;;;;;;;7.72;4.65;;;;;;;;;;10509225;28;20048;-76
2023/06/03 21:05:35;;;;;;;10.23;4.63;;;;;;;;;;10506865;28;20119;-76
2023/06/03 21:10:38;;;;;;;9.30;4.57;;;;;;;;;;10507780;28;20135;-76
2023/06/03 21:15:40;;;;;;;16.67;8.45;;;;;;;;;;10504697;28;20100;-76
2023/06/03 21:20:44;;;;;;;13.02;6.20;;;;;;;;;;10504624;28;20131;-75
2023/06/03 21:25:47;;;;;;;11.40;4.72;;;;;;;;;;10504828;28;20037;-74
2023/06/03 21:30:49;;;;;;;12.03;4.57;;;;;;;;;;10510457;28;20092;-76
2023/06/03 21:35:54;;;;;;;11.82;4.50;;;;;;;;;;10510383;28;20032;-75
2023/06/03 21:40:56;;;;;;;8.25;3.75;;;;;;;;;;10511118;28;20479;-77
2023/06/03 21:45:59;;;;;;;7.45;3.90;;;;;;;;;;10511193;28;20036;-76
2023/06/03 21:51:04;;;;;;;9.40;4.00;;;;;;;;;;10509931;28;20048;-74
2023/06/03 21:56:07;;;;;;;8.80;3.63;;;;;;;;;;10511303;28;20123;-76
2023/06/03 22:01:09;;;;;;;6.95;3.40;;;;;;;;;;10509779;28;20116;-76
2023/06/03 22:06:13;;;;;;;10.02;3.15;;;;;;;;;;10510370;28;20048;-77
2023/06/03 22:11:16;;;;;;;8.20;3.40;;;;;;;;;;10514046;28;20548;-75
2023/06/03 22:16:19;;;;;;;7.23;3.60;;;;;;;;;;10512311;28;20047;-76
2023/06/03 22:21:23;;;;;;;7.72;3.22;;;;;;;;;;10509223;28;20045;-75
2023/06/03 22:26:26;;;;;;;8.45;3.28;;;;;;;;;;10509227;28;20062;-75
2023/06/03 22:31:29;;;;;;;7.15;2.88;;;;;;;;;;10509600;28;20043;-75
2023/06/03 22:36:33;;;;;;;7.47;3.13;;;;;;;;;;10508099;28;20756;-75
2023/06/03 22:41:35;;;;;;;7.70;3.33;;;;;;;;;;10508585;28;20119;-75
2023/06/03 22:46:41;;;;;;;6.57;3.35;;;;;;;;;;10506413;28;20049;-75
2023/06/03 22:51:45;;;;;;;7.95;3.30;;;;;;;;;;10507766;28;20060;-76
2023/06/03 22:56:48;;;;;;;10.50;4.05;;;;;;;;;;10508911;28;20103;-76
2023/06/03 23:01:50;;;;;;;10.82;3.22;;;;;;;;;;10506620;28;20068;-75
2023/06/03 23:06:54;;;;;;;8.67;3.50;;;;;;;;;;10508711;28;20041;-76
2023/06/03 23:11:57;;;;;;;6.45;3.65;;;;;;;;;;10508705;28;20104;-77
2023/06/03 23:17:03;;;;;;;9.70;3.83;;;;;;;;;;10526454;28;20079;-78
2023/06/03 23:22:09;;;;;;;8.85;3.13;;;;;;;;;;10506726;28;20064;-77
2023/06/03 23:27:11;;;;;;;7.70;3.63;;;;;;;;;;10504526;28;20215;-77
2023/06/03 23:32:14;;;;;;;8.90;3.25;;;;;;;;;;10511678;28;20541;-77
2023/06/03 23:37:18;;;;;;;10.23;3.72;;;;;;;;;;10509318;28;20036;-76
2023/06/03 23:42:21;;;;;;;8.60;3.45;;;;;;;;;;10506792;28;20043;-75
2023/06/03 23:47:24;;;;;;;9.67;3.83;;;;;;;;;;10505867;28;20052;-76
2023/06/03 23:52:28;;;;;;;7.93;3.30;;;;;;;;;;10499318;28;20078;-77
2023/06/03 23:57:31;;;;;;;7.03;3.58;;;;;;;;;;10504088;28;20036;-77
